createdAt,value
2023-03-04T00:00:46.192Z,100458.38
2023-03-04T00:01:27.899Z,100447.91
2023-03-04T00:02:09.657Z,100458.88
2023-03-04T00:02:51.388Z,100465.75
2023-03-04T00:03:33.026Z,100460.66
2023-03-04T00:04:14.926Z,100464.63
2023-03-04T00:04:56.503Z,100478.28
2023-03-04T00:05:38.207Z,100456.47
2023-03-04T00:06:19.886Z,100465.16
2023-03-04T00:07:01.506Z,100447.44
2023-03-04T00:07:43.090Z,100457.84
2023-03-04T00:08:24.810Z,100480.78
2023-03-04T00:09:06.451Z,100468.69
2023-03-04T00:09:48.234Z,100473.16
2023-03-04T00:10:29.944Z,100469.63
2023-03-04T00:11:11.627Z,100435.09
2023-03-04T00:11:53.301Z,100414.31
2023-03-04T00:12:34.928Z,100475.91
2023-03-04T00:13:16.923Z,100471.41
2023-03-04T00:13:59.067Z,100372.09
2023-03-04T00:14:41.438Z,100449.44
2023-03-04T00:15:23.191Z,100451.28
2023-03-04T00:16:05.126Z,100474.25
2023-03-04T00:16:46.873Z,100401.47
2023-03-04T00:17:30.061Z,100417.47
2023-03-04T00:18:11.691Z,100470.72
2023-03-04T00:18:54.298Z,100472.09
2023-03-04T00:19:36.058Z,100402.47
2023-03-04T00:20:17.847Z,100461.66
2023-03-04T00:20:59.454Z,100450.72
2023-03-04T00:21:41.116Z,100469.09
2023-03-04T00:22:22.722Z,100468.19
2023-03-04T00:23:04.345Z,100445.91
2023-03-04T00:23:45.969Z,100449.06
2023-03-04T00:24:27.589Z,100459.06
2023-03-04T00:25:09.571Z,100430.69
2023-03-04T00:25:51.143Z,100479.53
2023-03-04T00:26:33.012Z,100425.84
2023-03-04T00:27:14.711Z,100460.94
2023-03-04T00:27:58.269Z,100472.66
2023-03-04T00:28:40.292Z,100469.81
2023-03-04T00:29:22.145Z,100482.22
2023-03-04T00:30:05.574Z,100474.31
2023-03-04T00:30:47.223Z,100417.28
2023-03-04T00:31:29.590Z,100483.81
2023-03-04T00:32:11.320Z,100473.38
2023-03-04T00:32:53.009Z,100399.13
2023-03-04T00:33:35.220Z,100477.09
2023-03-04T00:34:16.997Z,100401.72
2023-03-04T00:34:58.620Z,100469.28
2023-03-04T00:35:40.521Z,100473.75
2023-03-04T00:36:22.145Z,100478.13
2023-03-04T00:37:04.071Z,100476.56
2023-03-04T00:37:45.697Z,100404.81
2023-03-04T00:38:27.398Z,100475.84
2023-03-04T00:39:09.192Z,100475.00
2023-03-04T00:39:50.792Z,100478.53
2023-03-04T00:40:32.482Z,100447.50
2023-03-04T00:41:14.212Z,100443.16
2023-03-04T00:41:56.568Z,100474.25
2023-03-04T00:42:38.268Z,100459.94
2023-03-04T00:43:20.216Z,100467.66
2023-03-04T00:44:01.790Z,100417.00
2023-03-04T00:44:43.490Z,100448.94
2023-03-04T00:45:25.135Z,100484.13
2023-03-04T00:46:07.243Z,100453.56
2023-03-04T00:46:48.941Z,100472.44
2023-03-04T00:47:30.620Z,100480.06
2023-03-04T00:48:12.768Z,100481.09
2023-03-04T00:48:54.396Z,100445.97
2023-03-04T00:49:37.958Z,100447.53
2023-03-04T00:50:19.930Z,100483.13
2023-03-04T00:51:01.598Z,100473.72
2023-03-04T00:51:43.226Z,100470.28
2023-03-04T00:52:24.874Z,100467.63
2023-03-04T00:53:06.673Z,100463.47
2023-03-04T00:53:48.658Z,100491.69
2023-03-04T00:54:30.288Z,100440.25
2023-03-04T00:55:11.982Z,100448.81
2023-03-04T00:55:53.630Z,100445.63
2023-03-04T00:56:35.272Z,100451.22
2023-03-04T00:57:16.853Z,100499.69
2023-03-04T00:57:58.449Z,100426.22
2023-03-04T00:58:40.388Z,100478.69
2023-03-04T00:59:22.006Z,100461.41
2023-03-04T01:00:04.946Z,100468.69
2023-03-04T01:00:46.628Z,100462.16
2023-03-04T01:01:28.467Z,100475.44
2023-03-04T01:02:10.724Z,100492.47
2023-03-04T01:02:52.420Z,100484.22
2023-03-04T01:03:34.660Z,100483.28
2023-03-04T01:04:16.225Z,100461.16
2023-03-04T01:04:57.841Z,100461.72
2023-03-04T01:05:39.883Z,100468.88
2023-03-04T01:06:21.595Z,100483.19
2023-03-04T01:07:03.826Z,100485.13
2023-03-04T01:07:45.512Z,100470.75
2023-03-04T01:08:27.206Z,100492.47
2023-03-04T01:09:08.897Z,100461.06
2023-03-04T01:09:51.063Z,100456.44
2023-03-04T01:10:33.528Z,100479.00
2023-03-04T01:11:15.178Z,100477.81
2023-03-04T01:11:57.169Z,100478.91
2023-03-04T01:12:40.241Z,100474.56
2023-03-04T01:13:21.854Z,100488.41
2023-03-04T01:14:03.929Z,100477.34
2023-03-04T01:14:47.156Z,100474.34
2023-03-04T01:15:28.763Z,100477.69
2023-03-04T01:16:10.998Z,100448.44
2023-03-04T01:16:52.765Z,100450.97
2023-03-04T01:17:34.394Z,100486.25
2023-03-04T01:18:16.244Z,100466.66
2023-03-04T01:18:57.877Z,100467.47
2023-03-04T01:19:39.525Z,100476.50
2023-03-04T01:20:21.178Z,100469.78
2023-03-04T01:21:03.138Z,100459.78
2023-03-04T01:21:44.948Z,100472.13
2023-03-04T01:22:26.831Z,100465.53
2023-03-04T01:23:08.473Z,100481.69
2023-03-04T01:23:50.478Z,100447.41
2023-03-04T01:24:32.228Z,100449.00
2023-03-04T01:25:13.881Z,100468.69
2023-03-04T01:25:55.636Z,100466.44
2023-03-04T01:26:37.225Z,100481.69
2023-03-04T01:27:18.881Z,100478.34
2023-03-04T01:28:00.560Z,100469.06
2023-03-04T01:28:42.286Z,100426.41
2023-03-04T01:29:23.907Z,100467.09
2023-03-04T01:30:06.406Z,100459.13
2023-03-04T01:30:48.128Z,100466.66
2023-03-04T01:31:29.924Z,100469.78
2023-03-04T01:32:11.686Z,100477.59
2023-03-04T01:32:53.380Z,100478.53
2023-03-04T01:33:35.016Z,100483.81
2023-03-04T01:34:18.174Z,100447.41
2023-03-04T01:34:59.781Z,100476.09
2023-03-04T01:35:41.552Z,100429.31
2023-03-04T01:36:23.191Z,100471.94
2023-03-04T01:37:05.284Z,100476.31
2023-03-04T01:37:46.922Z,100488.50
2023-03-04T01:38:28.611Z,100475.38
2023-03-04T01:39:10.252Z,100454.28
2023-03-04T01:39:51.812Z,100467.69
2023-03-04T01:40:33.796Z,100477.06
2023-03-04T01:41:19.000Z,100469.13
2023-03-04T01:42:00.714Z,100475.19
2023-03-04T01:42:42.459Z,100459.66
2023-03-04T01:43:27.625Z,100450.22
2023-03-04T01:44:10.922Z,100458.72
2023-03-04T01:44:53.034Z,100464.78
2023-03-04T01:45:35.708Z,100432.38
2023-03-04T01:46:17.803Z,100451.06
2023-03-04T01:46:59.556Z,100450.66
2023-03-04T01:47:48.275Z,100470.19
2023-03-04T01:48:37.270Z,100432.75
2023-03-04T01:49:19.960Z,100452.16
2023-03-04T01:50:04.774Z,100458.84
2023-03-04T01:50:46.443Z,100467.56
2023-03-04T01:51:28.080Z,100461.53
2023-03-04T01:52:14.018Z,100407.28
2023-03-04T01:52:55.748Z,100457.53
2023-03-04T01:53:37.557Z,100465.81
2023-03-04T01:54:20.431Z,100463.88
2023-03-04T01:55:02.730Z,100442.03
2023-03-04T01:55:44.522Z,100445.09
2023-03-04T01:56:30.601Z,100452.53
2023-03-04T01:57:23.951Z,100400.97
2023-03-04T01:58:06.054Z,100451.13
2023-03-04T01:59:07.375Z,100446.03
2023-03-04T02:00:19.503Z,100449.81
2023-03-04T02:01:01.178Z,100447.78
2023-03-04T02:01:46.399Z,100441.75
2023-03-04T02:02:27.996Z,100441.94
2023-03-04T02:03:15.198Z,100454.75
2023-03-04T02:03:56.841Z,100456.53
2023-03-04T02:04:39.619Z,100456.53
2023-03-04T02:05:22.301Z,100450.47
2023-03-04T02:06:05.625Z,100425.03
2023-03-04T02:06:49.006Z,100459.22
2023-03-04T02:07:30.582Z,100428.00
2023-03-04T02:08:15.138Z,100413.06
2023-03-04T02:08:57.385Z,100449.81
2023-03-04T02:09:38.983Z,100468.03
2023-03-04T02:10:21.221Z,100455.25
2023-03-04T02:11:03.083Z,100438.97
2023-03-04T02:11:46.473Z,100438.69
2023-03-04T02:12:28.130Z,100436.94
2023-03-04T02:13:10.601Z,100445.28
2023-03-04T02:13:52.795Z,100354.28
2023-03-04T02:14:35.783Z,100430.91
2023-03-04T02:15:18.253Z,100437.66
2023-03-04T02:16:00.096Z,100392.06
2023-03-04T02:16:42.555Z,100438.69
2023-03-04T02:17:26.245Z,100403.88
2023-03-04T02:18:22.230Z,100442.31
2023-03-04T02:19:09.590Z,100439.13
2023-03-04T02:20:02.922Z,100421.03
2023-03-04T02:21:17.435Z,100440.28
2023-03-04T02:21:59.157Z,100440.28
2023-03-04T02:22:51.856Z,100445.38
2023-03-04T02:23:44.632Z,100457.34
2023-03-04T02:24:31.300Z,100443.31
2023-03-04T02:25:22.227Z,100452.72
2023-03-04T02:26:09.818Z,100441.47
2023-03-04T02:26:51.455Z,100402.94
2023-03-04T02:27:33.219Z,100368.56
2023-03-04T02:28:15.182Z,100446.59
2023-03-04T02:28:59.809Z,100443.06
2023-03-04T02:29:41.491Z,100433.41
2023-03-04T02:30:25.361Z,100437.19
2023-03-04T02:31:07.196Z,100449.56
2023-03-04T02:31:51.826Z,100430.50
2023-03-04T02:32:33.800Z,100453.25
2023-03-04T02:33:19.700Z,100453.25
2023-03-04T02:34:05.010Z,100457.00
2023-03-04T02:34:49.249Z,100420.66
2023-03-04T02:35:30.972Z,100447.69
2023-03-04T02:36:12.943Z,100377.66
2023-03-04T02:36:56.194Z,100445.19
2023-03-04T02:37:37.802Z,100430.78
2023-03-04T02:38:19.454Z,100448.44
2023-03-04T02:39:11.284Z,100449.53
2023-03-04T02:39:53.161Z,100446.69
2023-03-04T02:40:35.299Z,100443.97
2023-03-04T02:41:21.734Z,100438.22
2023-03-04T02:42:04.023Z,100444.81
2023-03-04T02:42:47.761Z,100431.25
2023-03-04T02:43:29.395Z,100442.41
2023-03-04T02:44:31.745Z,100441.66
2023-03-04T02:45:37.307Z,100448.69
2023-03-04T02:46:21.518Z,100428.53
2023-03-04T02:47:05.165Z,100446.47
2023-03-04T02:47:47.533Z,100441.63
2023-03-04T02:48:29.132Z,100440.50
2023-03-04T02:49:10.806Z,100450.16
2023-03-04T02:49:52.691Z,100421.91
2023-03-04T02:50:43.535Z,100444.56
2023-03-04T02:51:25.115Z,100438.25
2023-03-04T02:52:12.851Z,100443.66
2023-03-04T02:52:54.449Z,100434.34
2023-03-04T02:53:36.080Z,100404.34
2023-03-04T02:54:20.113Z,100416.97
2023-03-04T02:55:01.761Z,100467.03
2023-03-04T02:55:43.758Z,100445.41
2023-03-04T02:56:26.272Z,100358.44
2023-03-04T02:57:10.856Z,100446.25
2023-03-04T02:57:55.614Z,100450.53
2023-03-04T02:58:38.294Z,100450.63
2023-03-04T02:59:21.795Z,100450.44
2023-03-04T03:00:04.488Z,100447.84
2023-03-04T03:00:46.089Z,100446.91
2023-03-04T03:01:29.746Z,100422.75
2023-03-04T03:02:11.663Z,100424.44
2023-03-04T03:02:53.699Z,100429.03
2023-03-04T03:03:35.558Z,100448.59
2023-03-04T03:04:18.864Z,100414.56
2023-03-04T03:05:01.928Z,100452.28
2023-03-04T03:05:43.739Z,100448.94
2023-03-04T03:06:25.518Z,100447.25
2023-03-04T03:07:07.417Z,100412.31
2023-03-04T03:07:49.125Z,100438.06
2023-03-04T03:08:30.797Z,100445.97
2023-03-04T03:09:12.552Z,100426.59
2023-03-04T03:09:54.590Z,100445.66
2023-03-04T03:10:36.399Z,100443.16
2023-03-04T03:11:18.664Z,100452.53
2023-03-04T03:12:00.310Z,100441.22
2023-03-04T03:12:43.292Z,100424.59
2023-03-04T03:13:25.917Z,100442.72
2023-03-04T03:14:07.648Z,100431.50
2023-03-04T03:14:49.283Z,100443.41
2023-03-04T03:15:33.573Z,100418.13
2023-03-04T03:16:15.256Z,100441.59
2023-03-04T03:16:57.728Z,100424.13
2023-03-04T03:17:40.300Z,100411.34
2023-03-04T03:18:21.848Z,100453.78
2023-03-04T03:19:03.594Z,100406.41
2023-03-04T03:19:45.589Z,100432.25
2023-03-04T03:20:27.311Z,100431.66
2023-03-04T03:21:08.963Z,100426.09
2023-03-04T03:21:50.645Z,100447.09
2023-03-04T03:22:32.205Z,100443.56
2023-03-04T03:23:13.864Z,100442.72
2023-03-04T03:23:55.482Z,100450.63
2023-03-04T03:24:37.075Z,100437.72
2023-03-04T03:25:19.040Z,100439.56
2023-03-04T03:26:01.742Z,100440.47
2023-03-04T03:26:43.434Z,100443.28
2023-03-04T03:27:25.102Z,100423.66
2023-03-04T03:28:06.783Z,100433.13
2023-03-04T03:28:48.518Z,100413.00
2023-03-04T03:29:30.148Z,100418.66
2023-03-04T03:30:14.628Z,100408.03
2023-03-04T03:30:56.471Z,100438.16
2023-03-04T03:31:38.163Z,100363.94
2023-03-04T03:32:19.835Z,100439.44
2023-03-04T03:33:05.742Z,100441.28
2023-03-04T03:33:47.410Z,100437.28
2023-03-04T03:34:29.108Z,100404.84
2023-03-04T03:35:10.989Z,100444.69
2023-03-04T03:35:52.765Z,100416.91
2023-03-04T03:36:34.417Z,100344.22
2023-03-04T03:37:16.322Z,100433.47
2023-03-04T03:37:57.974Z,100439.28
2023-03-04T03:38:39.624Z,100433.19
2023-03-04T03:39:21.194Z,100433.09
2023-03-04T03:40:03.800Z,100434.94
2023-03-04T03:40:45.407Z,100409.28
2023-03-04T03:41:27.074Z,100431.78
2023-03-04T03:42:08.694Z,100376.84
2023-03-04T03:42:50.313Z,100430.88
2023-03-04T03:43:31.918Z,100452.19
2023-03-04T03:44:13.586Z,100402.66
2023-03-04T03:44:55.982Z,100453.88
2023-03-04T03:45:37.684Z,100415.03
2023-03-04T03:46:19.329Z,100459.06
2023-03-04T03:47:00.925Z,100419.97
2023-03-04T03:47:42.525Z,100405.00
2023-03-04T03:48:24.155Z,100440.59
2023-03-04T03:49:05.727Z,100426.78
2023-03-04T03:49:47.381Z,100440.06
2023-03-04T03:50:29.434Z,100431.72
2023-03-04T03:51:11.112Z,100465.13
2023-03-04T03:51:53.695Z,100450.38
2023-03-04T03:52:35.404Z,100433.81
2023-03-04T03:53:17.066Z,100447.03
2023-03-04T03:53:58.703Z,100438.19
2023-03-04T03:54:40.291Z,100407.50
2023-03-04T03:55:22.173Z,100302.88
2023-03-04T03:56:04.186Z,100455.25
2023-03-04T03:56:45.853Z,100441.69
2023-03-04T03:57:28.555Z,100458.63
2023-03-04T03:58:10.125Z,100453.94
2023-03-04T03:58:51.672Z,100428.84
2023-03-04T03:59:33.301Z,100398.06
2023-03-04T04:00:16.271Z,100461.59
2023-03-04T04:00:58.528Z,100445.78
2023-03-04T04:01:40.248Z,100456.88
2023-03-04T04:02:22.637Z,100442.66
2023-03-04T04:03:04.550Z,100454.13
2023-03-04T04:03:46.410Z,100439.22
2023-03-04T04:04:28.037Z,100447.16
2023-03-04T04:05:10.868Z,100458.06
2023-03-04T04:05:52.561Z,100464.56
2023-03-04T04:06:34.149Z,100431.75
2023-03-04T04:07:15.854Z,100473.13
2023-03-04T04:07:57.564Z,100418.31
2023-03-04T04:08:39.182Z,100446.00
2023-03-04T04:09:20.825Z,100405.25
2023-03-04T04:10:02.565Z,100424.25
2023-03-04T04:10:44.531Z,100460.97
2023-03-04T04:11:26.240Z,100449.31
2023-03-04T04:12:08.276Z,100382.16
2023-03-04T04:12:49.936Z,100471.38
2023-03-04T04:13:31.515Z,100475.72
2023-03-04T04:14:14.412Z,100475.72
2023-03-04T04:14:56.035Z,100444.81
2023-03-04T04:15:38.679Z,100459.63
2023-03-04T04:16:20.584Z,100464.75
2023-03-04T04:17:02.467Z,100462.22
2023-03-04T04:17:44.149Z,100481.22
2023-03-04T04:18:25.899Z,100459.06
2023-03-04T04:19:08.044Z,100465.66
2023-03-04T04:19:49.666Z,100475.13
2023-03-04T04:20:31.812Z,100462.16
2023-03-04T04:21:14.206Z,100470.69
2023-03-04T04:21:55.900Z,100435.38
2023-03-04T04:22:37.661Z,100489.44
2023-03-04T04:23:19.383Z,100471.94
2023-03-04T04:24:01.022Z,100469.94
2023-03-04T04:24:42.828Z,100466.50
2023-03-04T04:25:24.737Z,100473.84
2023-03-04T04:26:06.429Z,100468.47
2023-03-04T04:26:48.039Z,100466.72
2023-03-04T04:27:29.677Z,100465.03
2023-03-04T04:28:11.300Z,100465.28
2023-03-04T04:28:52.989Z,100448.91
2023-03-04T04:29:34.605Z,100472.34
2023-03-04T04:30:16.344Z,100472.09
2023-03-04T04:30:58.006Z,100471.09
2023-03-04T04:31:39.853Z,100473.63
2023-03-04T04:32:21.485Z,100446.00
2023-03-04T04:33:04.754Z,100466.75
2023-03-04T04:33:46.436Z,100457.06
2023-03-04T04:34:28.101Z,100439.13
2023-03-04T04:35:09.903Z,100478.91
2023-03-04T04:35:51.659Z,100326.44
2023-03-04T04:36:33.523Z,100480.66
2023-03-04T04:37:15.184Z,100460.22
2023-03-04T04:37:57.144Z,100447.69
2023-03-04T04:38:38.904Z,100470.81
2023-03-04T04:39:20.525Z,100470.66
2023-03-04T04:40:03.645Z,100470.81
2023-03-04T04:40:45.322Z,100480.50
2023-03-04T04:41:31.965Z,100480.66
2023-03-04T04:42:13.709Z,100457.97
2023-03-04T04:42:55.294Z,100465.69
2023-03-04T04:43:36.942Z,100459.81
2023-03-04T04:44:18.713Z,100468.75
2023-03-04T04:45:00.359Z,100476.38
2023-03-04T04:45:42.002Z,100473.94
2023-03-04T04:46:23.787Z,100460.56
2023-03-04T04:47:07.224Z,100439.75
2023-03-04T04:47:48.947Z,100478.41
2023-03-04T04:48:30.577Z,100479.44
2023-03-04T04:49:12.242Z,100483.56
2023-03-04T04:49:53.838Z,100457.28
2023-03-04T04:50:35.525Z,100467.13
2023-03-04T04:51:17.185Z,100484.97
2023-03-04T04:51:58.797Z,100434.69
2023-03-04T04:52:40.479Z,100473.75
2023-03-04T04:53:22.140Z,100485.91
2023-03-04T04:54:04.545Z,100477.25
2023-03-04T04:54:46.244Z,100473.75
2023-03-04T04:55:28.305Z,100442.88
2023-03-04T04:56:16.243Z,100469.81
2023-03-04T04:56:57.808Z,100492.00
2023-03-04T04:57:39.482Z,100483.31
2023-03-04T04:58:21.179Z,100443.31
2023-03-04T04:59:05.507Z,100406.44
2023-03-04T04:59:47.105Z,100415.44
2023-03-04T05:00:28.745Z,100483.94
2023-03-04T05:01:10.514Z,100487.88
2023-03-04T05:01:52.212Z,100412.63
2023-03-04T05:02:37.579Z,100493.94
2023-03-04T05:03:21.423Z,100474.34
2023-03-04T05:04:04.557Z,100480.94
2023-03-04T05:04:46.397Z,100481.69
2023-03-04T05:05:28.007Z,100485.03
2023-03-04T05:06:11.307Z,100467.00
2023-03-04T05:06:53.003Z,100486.22
2023-03-04T05:07:34.776Z,100482.34
2023-03-04T05:08:16.538Z,100459.38
2023-03-04T05:08:58.167Z,100488.09
2023-03-04T05:09:39.773Z,100491.34
2023-03-04T05:10:21.374Z,100476.09
2023-03-04T05:11:04.598Z,100479.47
2023-03-04T05:11:46.354Z,100472.66
2023-03-04T05:12:27.981Z,100480.38
2023-03-04T05:13:09.569Z,100478.72
2023-03-04T05:13:51.532Z,100467.03
2023-03-04T05:14:33.167Z,100475.56
2023-03-04T05:15:14.840Z,100472.69
2023-03-04T05:15:57.145Z,100483.38
2023-03-04T05:16:38.772Z,100479.94
2023-03-04T05:17:20.344Z,100467.94
2023-03-04T05:18:01.937Z,100469.72
2023-03-04T05:18:43.734Z,100486.16
2023-03-04T05:19:25.350Z,100477.34
2023-03-04T05:20:07.375Z,100472.88
2023-03-04T05:20:53.198Z,100459.47
2023-03-04T05:21:34.891Z,100476.31
2023-03-04T05:22:16.508Z,100466.09
2023-03-04T05:22:58.236Z,100471.28
2023-03-04T05:23:41.807Z,100462.19
2023-03-04T05:24:23.384Z,100497.31
2023-03-04T05:25:05.581Z,100458.47
2023-03-04T05:25:47.838Z,100482.28
2023-03-04T05:26:29.556Z,100466.44
2023-03-04T05:27:11.405Z,100434.69
2023-03-04T05:27:53.119Z,100457.72
2023-03-04T05:28:35.414Z,100413.63
2023-03-04T05:29:17.042Z,100458.56
2023-03-04T05:30:01.612Z,100462.38
2023-03-04T05:30:44.930Z,100464.00
2023-03-04T05:31:26.731Z,100470.16
2023-03-04T05:32:08.568Z,100449.91
2023-03-04T05:32:50.207Z,100456.41
2023-03-04T05:33:31.860Z,100486.22
2023-03-04T05:34:13.430Z,100468.84
2023-03-04T05:34:55.079Z,100416.09
2023-03-04T05:35:37.517Z,100463.75
2023-03-04T05:36:19.174Z,100401.53
2023-03-04T05:37:00.788Z,100449.53
2023-03-04T05:37:42.500Z,100466.97
2023-03-04T05:38:25.605Z,100466.16
2023-03-04T05:39:07.249Z,100469.59
2023-03-04T05:39:48.904Z,100464.66
2023-03-04T05:40:30.612Z,100473.22
2023-03-04T05:41:12.208Z,100460.66
2023-03-04T05:41:53.780Z,100465.50
2023-03-04T05:42:35.333Z,100449.53
2023-03-04T05:43:17.210Z,100469.47
2023-03-04T05:43:58.798Z,100467.50
2023-03-04T05:44:40.382Z,100467.31
2023-03-04T05:45:22.628Z,100467.22
2023-03-04T05:46:04.770Z,100462.22
2023-03-04T05:46:46.534Z,100457.50
2023-03-04T05:47:28.110Z,100476.63
2023-03-04T05:48:09.856Z,100481.19
2023-03-04T05:48:53.088Z,100457.41
2023-03-04T05:49:34.717Z,100460.53
2023-03-04T05:50:16.600Z,100450.63
2023-03-04T05:51:00.177Z,100468.81
2023-03-04T05:51:41.841Z,100444.66
2023-03-04T05:52:23.450Z,100469.75
2023-03-04T05:53:05.163Z,100469.00
2023-03-04T05:53:47.303Z,100456.84
2023-03-04T05:54:28.899Z,100472.53
2023-03-04T05:55:11.050Z,100448.38
2023-03-04T05:55:53.059Z,100484.63
2023-03-04T05:56:34.904Z,100487.97
2023-03-04T05:57:16.561Z,100473.19
2023-03-04T05:57:58.425Z,100478.16
2023-03-04T05:58:40.016Z,100466.63
2023-03-04T05:59:21.643Z,100477.78
2023-03-04T06:00:09.397Z,100471.56
2023-03-04T06:01:00.428Z,100483.53
2023-03-04T06:01:41.978Z,100465.44
2023-03-04T06:02:23.696Z,100470.88
2023-03-04T06:03:05.416Z,100475.78
2023-03-04T06:03:49.220Z,100482.47
2023-03-04T06:04:30.966Z,100450.22
2023-03-04T06:05:14.236Z,100469.00
2023-03-04T06:05:56.069Z,100449.25
2023-03-04T06:06:37.697Z,100398.19
2023-03-04T06:07:19.302Z,100475.53
2023-03-04T06:08:00.952Z,100480.13
2023-03-04T06:08:42.644Z,100456.81
2023-03-04T06:09:24.325Z,100482.91
2023-03-04T06:10:07.257Z,100409.28
2023-03-04T06:10:52.931Z,100467.88
2023-03-04T06:11:36.313Z,100475.00
2023-03-04T06:12:18.123Z,100432.41
2023-03-04T06:12:59.833Z,100480.22
2023-03-04T06:13:41.493Z,100474.91
2023-03-04T06:14:23.167Z,100468.13
2023-03-04T06:15:06.155Z,100490.78
2023-03-04T06:15:48.026Z,100460.94
2023-03-04T06:16:29.676Z,100449.91
2023-03-04T06:17:11.351Z,100477.25
2023-03-04T06:17:52.980Z,100502.38
2023-03-04T06:18:34.652Z,100478.84
2023-03-04T06:19:16.266Z,100473.91
2023-03-04T06:19:57.910Z,100470.28
2023-03-04T06:20:39.505Z,100480.19
2023-03-04T06:21:21.190Z,100479.16
2023-03-04T06:22:02.790Z,100478.97
2023-03-04T06:22:44.397Z,100457.16
2023-03-04T06:23:26.895Z,100488.28
2023-03-04T06:24:08.739Z,100495.06
2023-03-04T06:24:50.547Z,100485.44
2023-03-04T06:25:33.253Z,100495.06
2023-03-04T06:26:15.710Z,100471.66
2023-03-04T06:26:57.454Z,100493.59
2023-03-04T06:27:39.172Z,100503.06
2023-03-04T06:28:21.197Z,100484.28
2023-03-04T06:29:02.834Z,100485.22
2023-03-04T06:29:44.576Z,100489.63
2023-03-04T06:30:26.406Z,100497.91
2023-03-04T06:31:08.146Z,100501.66
2023-03-04T06:31:49.813Z,100490.22
2023-03-04T06:32:31.508Z,100443.72
2023-03-04T06:33:13.106Z,100500.53
2023-03-04T06:33:54.950Z,100508.66
2023-03-04T06:34:37.311Z,100373.25
2023-03-04T06:35:19.287Z,100484.50
2023-03-04T06:36:01.354Z,100510.09
2023-03-04T06:36:43.156Z,100520.63
2023-03-04T06:37:24.760Z,100488.19
2023-03-04T06:38:06.395Z,100492.22
2023-03-04T06:38:47.997Z,100508.47
2023-03-04T06:39:29.651Z,100509.81
2023-03-04T06:40:12.318Z,100512.88
2023-03-04T06:40:57.119Z,100515.06
2023-03-04T06:41:39.093Z,100515.97
2023-03-04T06:42:20.725Z,100512.44
2023-03-04T06:43:02.402Z,100514.03
2023-03-04T06:43:44.154Z,100510.28
2023-03-04T06:44:25.844Z,100504.88
2023-03-04T06:45:09.237Z,100493.06
2023-03-04T06:45:50.871Z,100502.47
2023-03-04T06:46:36.292Z,100500.25
2023-03-04T06:47:18.922Z,100523.16
2023-03-04T06:48:00.541Z,100471.25
2023-03-04T06:48:42.249Z,100494.94
2023-03-04T06:49:24.107Z,100513.31
2023-03-04T06:50:06.256Z,100513.53
2023-03-04T06:50:47.913Z,100520.50
2023-03-04T06:51:30.431Z,100512.78
2023-03-04T06:52:12.936Z,100496.19
2023-03-04T06:52:57.342Z,100497.72
2023-03-04T06:53:40.150Z,100508.09
2023-03-04T06:54:21.940Z,100517.09
2023-03-04T06:55:04.213Z,100515.00
2023-03-04T06:55:47.106Z,100500.59
2023-03-04T06:56:28.748Z,100496.22
2023-03-04T06:57:10.501Z,100516.56
2023-03-04T06:57:52.137Z,100515.53
2023-03-04T06:58:34.014Z,100507.28
2023-03-04T06:59:15.780Z,100518.44
2023-03-04T06:59:57.465Z,100489.53
2023-03-04T07:00:39.121Z,100521.16
2023-03-04T07:01:24.311Z,100520.22
2023-03-04T07:02:06.578Z,100515.19
2023-03-04T07:02:48.239Z,100526.91
2023-03-04T07:03:29.883Z,100452.91
2023-03-04T07:04:14.091Z,100522.00
2023-03-04T07:04:55.814Z,100397.81
2023-03-04T07:05:37.422Z,100512.47
2023-03-04T07:06:21.395Z,100520.09
2023-03-04T07:07:03.037Z,100513.31
2023-03-04T07:07:44.638Z,100503.22
2023-03-04T07:08:26.250Z,100527.72
2023-03-04T07:09:08.111Z,100507.69
2023-03-04T07:09:49.734Z,100511.75
2023-03-04T07:10:31.403Z,100514.56
2023-03-04T07:11:14.429Z,100492.13
2023-03-04T07:11:56.072Z,100514.13
2023-03-04T07:12:37.851Z,100428.91
2023-03-04T07:13:19.422Z,100509.66
2023-03-04T07:14:01.089Z,100512.66
2023-03-04T07:14:42.735Z,100513.16
2023-03-04T07:15:24.349Z,100491.66
2023-03-04T07:16:08.294Z,100526.84
2023-03-04T07:16:49.930Z,100509.19
2023-03-04T07:17:31.520Z,100522.38
2023-03-04T07:18:13.221Z,100461.03
2023-03-04T07:18:54.865Z,100524.88
2023-03-04T07:19:36.998Z,100395.53
2023-03-04T07:20:18.728Z,100514.78
2023-03-04T07:21:00.282Z,100516.34
2023-03-04T07:21:41.850Z,100528.97
2023-03-04T07:22:23.427Z,100528.97
2023-03-04T07:23:05.180Z,100521.06
2023-03-04T07:23:47.244Z,100526.06
2023-03-04T07:24:28.981Z,100514.81
2023-03-04T07:25:10.728Z,100527.41
2023-03-04T07:25:52.388Z,100523.13
2023-03-04T07:26:34.104Z,100460.94
2023-03-04T07:27:15.755Z,100515.00
2023-03-04T07:27:57.400Z,100527.84
2023-03-04T07:28:39.360Z,100536.91
2023-03-04T07:29:20.938Z,100532.13
2023-03-04T07:30:02.578Z,100520.84
2023-03-04T07:30:44.497Z,100533.66
2023-03-04T07:31:31.559Z,100521.97
2023-03-04T07:32:13.545Z,100538.66
2023-03-04T07:32:58.487Z,100532.69
2023-03-04T07:33:40.166Z,100535.53
2023-03-04T07:34:21.848Z,100534.78
2023-03-04T07:35:04.200Z,100529.97
2023-03-04T07:35:46.018Z,100538.72
2023-03-04T07:36:28.172Z,100547.91
2023-03-04T07:37:10.077Z,100523.34
2023-03-04T07:37:51.688Z,100543.69
2023-03-04T07:38:33.391Z,100518.00
2023-03-04T07:39:15.038Z,100490.00
2023-03-04T07:39:56.584Z,100541.66
2023-03-04T07:40:38.582Z,100524.28
2023-03-04T07:41:21.837Z,100545.47
2023-03-04T07:42:03.548Z,100521.63
2023-03-04T07:42:55.863Z,100533.41
2023-03-04T07:43:37.542Z,100533.91
2023-03-04T07:44:19.176Z,100483.19
2023-03-04T07:45:01.906Z,100512.88
2023-03-04T07:45:43.607Z,100534.47
2023-03-04T07:46:25.827Z,100532.44
2023-03-04T07:47:07.462Z,100533.63
2023-03-04T07:47:49.669Z,100536.47
2023-03-04T07:48:31.459Z,100529.69
2023-03-04T07:49:13.946Z,100528.94
2023-03-04T07:49:56.137Z,100521.41
2023-03-04T07:50:37.779Z,100470.50
2023-03-04T07:51:21.525Z,100529.63
2023-03-04T07:52:05.287Z,100537.22
2023-03-04T07:52:50.811Z,100535.53
2023-03-04T07:53:33.399Z,100506.44
2023-03-04T07:54:15.119Z,100528.59
2023-03-04T07:54:56.922Z,100525.88
2023-03-04T07:55:38.635Z,100505.09
2023-03-04T07:56:23.841Z,100531.63
2023-03-04T07:57:05.622Z,100539.25
2023-03-04T07:57:48.186Z,100540.31
2023-03-04T07:58:29.999Z,100523.84
2023-03-04T07:59:11.628Z,100540.50
2023-03-04T07:59:53.305Z,100542.28
2023-03-04T08:00:34.910Z,100551.94
2023-03-04T08:01:22.752Z,100544.31
2023-03-04T08:02:04.500Z,100545.38
2023-03-04T08:02:46.285Z,100549.75
2023-03-04T08:03:29.518Z,100541.53
2023-03-04T08:04:11.203Z,100557.06
2023-03-04T08:04:52.811Z,100529.72
2023-03-04T08:05:34.372Z,100554.78